Dallas, Texas
Traffic Map
Current Weather Conditions
Dallas, Texas
Few Clouds
Few Clouds
78°
Feels Like: 80°
Wind Chill: 78° Ceiling: Unl
Heat Index: 80° Visibility: 10mi
Dew Point: 72° Wind: 7mph
Humidity: 81% Direction: 110° (ESE)
Pressure: 29.82in Gusts: 0mph
Raw Report DataKDAL 271153Z 11006KT 10SM FEW095 FEW250 26/22 A2982 RMK AO2 SLP089 T02560222 10294 20256 53013
Traffic Incident Summary
Active as of:
Severity:
Category:
InformationThere was an issue retrieving the traffic information for this location. Please try a different location or try again shortly.
Advertisements